Time;durP1;ratioP1;P1;durP2;ratioP2;P2;SDS_P1;SDS_P2;PMS_P1;PMS_P2;Temp;Humidity;BMP_temperature;BMP_pressure;BME280_temperature;BME280_humidity;BME280_pressure;Samples;Min_cycle;Max_cycle;Signal;HPM_P1;HPM_P2
2022/01/01 00:00:20;;;;;;;48.28;43.38;;;;;;;;;;7332052;19;161777;-15
2022/01/01 00:02:52;;;;;;;45.50;40.70;;;;;;;;;;7326151;19;162342;-14
2022/01/01 00:05:29;;;;;;;47.08;42.10;;;;;;;;;;7329900;19;154032;-16
2022/01/01 00:08:03;;;;;;;47.20;42.17;;;;;;;;;;7331617;19;153677;-15
2022/01/01 00:10:35;;;;;;;46.75;41.88;;;;;;;;;;7333870;19;161728;-15
2022/01/01 00:13:16;;;;;;;46.97;42.10;;;;;;;;;;7333306;19;162453;-15
2022/01/01 00:15:47;;;;;;;47.30;42.60;;;;;;;;;;7334678;19;154086;-14
2022/01/01 00:18:19;;;;;;;48.38;43.38;;;;;;;;;;7336281;19;153760;-15
2022/01/01 00:20:53;;;;;;;47.28;42.28;;;;;;;;;;7331525;19;161982;-14
2022/01/01 00:23:24;;;;;;;46.88;42.10;;;;;;;;;;7330923;19;162377;-16
2022/01/01 00:25:55;;;;;;;47.90;42.83;;;;;;;;;;7331543;19;153727;-15
2022/01/01 00:28:27;;;;;;;45.58;40.78;;;;;;;;;;7331411;19;153896;-14
2022/01/01 00:30:58;;;;;;;44.95;40.25;;;;;;;;;;7331228;19;161963;-15
2022/01/01 00:33:29;;;;;;;43.55;38.95;;;;;;;;;;7330844;19;162117;-16
2022/01/01 00:36:03;;;;;;;44.55;40.05;;;;;;;;;;7331230;19;154539;-16
2022/01/01 00:38:34;;;;;;;45.58;40.78;;;;;;;;;;7333928;19;153620;-15
2022/01/01 00:41:06;;;;;;;44.22;39.85;;;;;;;;;;7330674;19;162046;-15
2022/01/01 00:43:37;;;;;;;43.60;39.40;;;;;;;;;;7327710;19;161941;-15
2022/01/01 00:46:08;;;;;;;45.90;41.20;;;;;;;;;;7331005;19;153740;-16
2022/01/01 00:48:39;;;;;;;43.97;39.47;;;;;;;;;;7330884;19;153594;-16
2022/01/01 00:51:30;;;;;;;44.72;39.83;;;;;;;;;;7330722;19;161983;-15
2022/01/01 00:54:01;;;;;;;44.60;40.00;;;;;;;;;;7332847;19;162609;-15
2022/01/01 00:56:32;;;;;;;43.90;39.17;;;;;;;;;;7330702;19;153986;-15
2022/01/01 00:59:03;;;;;;;41.42;37.10;;;;;;;;;;7330775;19;153544;-16
2022/01/01 01:01:36;;;;;;;45.40;40.83;;;;;;;;;;7330943;19;161840;-15
2022/01/01 01:04:08;;;;;;;33.10;29.80;;;;;;;;;;7329229;19;162514;-16
2022/01/01 01:06:42;;;;;;;31.90;28.80;;;;;;;;;;7330770;19;154101;-16
2022/01/01 01:09:14;;;;;;;34.95;30.60;;;;;;;;;;7330625;19;153728;-14
2022/01/01 10:23:16;;;;;;;6.10;5.60;;;;;;;;;;7371629;19;132583;-17
2022/01/01 10:28:31;;;;;;;7.55;6.95;;;;;;;;;;7365915;19;161918;-18
2022/01/01 10:31:03;;;;;;;6.97;6.35;;;;;;;;;;7366417;19;162554;-17
2022/01/01 10:33:35;;;;;;;7.30;6.68;;;;;;;;;;7367246;19;154318;-16
2022/01/01 10:36:07;;;;;;;6.20;5.80;;;;;;;;;;7366555;19;153691;-17
2022/01/01 10:38:41;;;;;;;6.65;6.25;;;;;;;;;;7367330;19;162435;-16
2022/01/01 10:41:15;;;;;;;7.32;6.68;;;;;;;;;;7367277;19;162613;-17
2022/01/01 10:43:48;;;;;;;6.85;6.30;;;;;;;;;;7367044;19;153862;-17
2022/01/01 10:46:20;;;;;;;11.45;10.30;;;;;;;;;;7368437;19;153773;-17
2022/01/01 10:49:08;;;;;;;11.23;10.23;;;;;;;;;;7367668;19;161837;-17
2022/01/01 10:51:40;;;;;;;12.68;11.73;;;;;;;;;;7366589;19;162439;-17
2022/01/01 10:54:13;;;;;;;14.73;13.48;;;;;;;;;;7367890;19;153979;-17
2022/01/01 10:56:45;;;;;;;19.65;18.00;;;;;;;;;;7366905;19;153821;-18
2022/01/01 10:59:32;;;;;;;15.27;14.07;;;;;;;;;;7366759;19;161832;-18
2022/01/01 11:02:04;;;;;;;19.38;17.77;;;;;;;;;;7366523;19;162487;-18
2022/01/01 11:04:36;;;;;;;20.85;19.15;;;;;;;;;;7366076;19;154066;-17
2022/01/01 11:07:08;;;;;;;22.80;20.95;;;;;;;;;;7364889;19;153604;-18
2022/01/01 11:09:42;;;;;;;21.17;19.45;;;;;;;;;;7366292;19;161876;-18
2022/01/01 11:12:17;;;;;;;20.20;18.67;;;;;;;;;;7365340;19;162316;-17
2022/01/01 11:14:48;;;;;;;18.40;17.02;;;;;;;;;;7366216;19;153711;-17
2022/01/01 11:17:21;;;;;;;18.95;17.45;;;;;;;;;;7364450;19;153908;-18
2022/01/01 11:19:53;;;;;;;16.38;15.23;;;;;;;;;;7366064;19;161789;-17
2022/01/01 11:22:28;;;;;;;15.80;14.70;;;;;;;;;;7354521;19;162575;-17
2022/01/01 11:25:02;;;;;;;14.90;13.80;;;;;;;;;;7335964;19;154039;-17
2022/01/01 11:27:37;;;;;;;12.68;11.70;;;;;;;;;;7336380;19;153823;-17
2022/01/01 11:30:11;;;;;;;10.15;9.35;;;;;;;;;;7336622;19;162006;-18
2022/01/01 11:32:46;;;;;;;8.63;8.02;;;;;;;;;;7332832;19;162374;-17
2022/01/01 11:35:21;;;;;;;9.43;8.80;;;;;;;;;;7336397;19;153901;-17
2022/01/01 11:38:01;;;;;;;8.85;8.18;;;;;;;;;;7336806;19;153561;-18
2022/01/01 11:40:54;;;;;;;7.45;6.85;;;;;;;;;;7336371;19;161921;-17
2022/01/01 11:43:42;;;;;;;7.10;6.40;;;;;;;;;;7336380;19;162407;-18
2022/01/01 11:46:15;;;;;;;8.27;7.57;;;;;;;;;;7334646;19;153935;-17
2022/01/01 11:48:55;;;;;;;8.43;7.82;;;;;;;;;;7335892;19;153529;-17
2022/01/01 11:51:29;;;;;;;8.40;7.80;;;;;;;;;;7336005;19;161956;-17
2022/01/01 11:54:20;;;;;;;9.90;7.30;;;;;;;;;;7337160;19;162383;-18
2022/01/01 11:57:20;;;;;;;8.23;7.53;;;;;;;;;;7334572;19;153930;-18
2022/01/01 12:00:04;;;;;;;9.32;8.50;;;;;;;;;;7336603;19;153508;-18
2022/01/01 12:02:49;;;;;;;9.10;8.40;;;;;;;;;;7336148;19;161998;-18
2022/01/01 12:05:27;;;;;;;8.90;8.00;;;;;;;;;;7334979;19;162516;-17
2022/01/01 12:08:01;;;;;;;8.45;7.75;;;;;;;;;;7335094;19;153930;-18
2022/01/01 12:10:36;;;;;;;8.63;8.02;;;;;;;;;;7334118;19;153693;-17
2022/01/01 12:13:15;;;;;;;8.57;7.85;;;;;;;;;;7332520;19;162117;-17
2022/01/01 12:15:48;;;;;;;8.73;8.02;;;;;;;;;;7335652;19;162643;-17
2022/01/01 12:18:21;;;;;;;8.40;7.80;;;;;;;;;;7334297;19;153944;-17
2022/01/01 12:21:01;;;;;;;8.75;8.05;;;;;;;;;;7334026;19;153521;-17
2022/01/01 12:23:36;;;;;;;8.63;8.02;;;;;;;;;;7335947;19;161617;-17
2022/01/01 12:26:11;;;;;;;7.47;6.78;;;;;;;;;;7335357;19;162637;-16
2022/01/01 12:28:51;;;;;;;6.70;6.20;;;;;;;;;;7335842;19;154184;-17
2022/01/01 12:31:25;;;;;;;6.50;5.90;;;;;;;;;;7333249;19;153516;-17
2022/01/01 12:33:59;;;;;;;6.15;5.65;;;;;;;;;;7331312;19;161859;-17
2022/01/01 12:36:45;;;;;;;6.70;6.10;;;;;;;;;;7334564;19;162389;-16
2022/01/01 12:39:17;;;;;;;6.03;5.53;;;;;;;;;;7335126;19;153961;-16
2022/01/01 12:41:49;;;;;;;6.03;5.40;;;;;;;;;;7335163;19;153532;-16
2022/01/01 12:44:31;;;;;;;5.90;5.50;;;;;;;;;;7334401;19;161916;-17
2022/01/01 12:47:06;;;;;;;6.20;5.80;;;;;;;;;;7333490;19;162331;-17
2022/01/01 12:49:38;;;;;;;6.25;5.82;;;;;;;;;;7333380;19;154093;-18
2022/01/01 12:52:15;;;;;;;6.22;5.72;;;;;;;;;;7334081;19;153693;-17
2022/01/01 12:54:47;;;;;;;6.80;6.28;;;;;;;;;;7334615;19;161977;-16
2022/01/01 12:57:20;;;;;;;5.72;5.40;;;;;;;;;;7332510;19;162555;-17
2022/01/01 12:59:54;;;;;;;6.32;5.78;;;;;;;;;;7332573;19;154173;-16
2022/01/01 13:02:26;;;;;;;5.65;5.25;;;;;;;;;;7333808;19;153749;-16
2022/01/01 13:05:03;;;;;;;6.05;5.65;;;;;;;;;;7332117;19;162173;-18
2022/01/01 13:07:35;;;;;;;5.75;5.28;;;;;;;;;;7332265;19;162507;-16
2022/01/01 13:10:07;;;;;;;5.38;4.90;;;;;;;;;;7331687;19;153902;-16
2022/01/01 13:12:38;;;;;;;5.45;5.05;;;;;;;;;;7331884;19;153610;-16
2022/01/01 13:15:15;;;;;;;5.20;4.80;;;;;;;;;;7333213;19;162738;-15
2022/01/01 13:17:49;;;;;;;5.20;4.80;;;;;;;;;;7333162;19;162518;-17
2022/01/01 13:20:20;;;;;;;4.97;4.57;;;;;;;;;;7334807;19;153946;-16
2022/01/01 13:22:52;;;;;;;5.00;4.60;;;;;;;;;;7330269;19;153575;-16
2022/01/01 13:25:23;;;;;;;4.57;4.28;;;;;;;;;;7332935;19;161801;-17
2022/01/01 13:27:56;;;;;;;5.07;4.68;;;;;;;;;;7333490;19;162511;-17
2022/01/01 13:30:30;;;;;;;4.40;4.10;;;;;;;;;;7335182;19;154086;-18
2022/01/01 13:33:02;;;;;;;5.22;4.82;;;;;;;;;;7330896;19;153732;-17
2022/01/01 13:35:33;;;;;;;4.45;4.15;;;;;;;;;;7331986;19;161855;-17
2022/01/01 13:38:08;;;;;;;4.53;4.22;;;;;;;;;;7329406;19;162536;-17
2022/01/01 13:40:39;;;;;;;5.18;4.65;;;;;;;;;;7332590;19;154026;-17
2022/01/01 13:43:11;;;;;;;4.85;4.45;;;;;;;;;;7332266;19;153508;-18
2022/01/01 13:45:46;;;;;;;5.10;4.70;;;;;;;;;;7331554;19;161798;-18
2022/01/01 13:48:17;;;;;;;4.35;4.00;;;;;;;;;;7334331;19;162308;-17
2022/01/01 13:50:50;;;;;;;4.90;4.40;;;;;;;;;;7331086;19;153949;-17
2022/01/01 13:53:23;;;;;;;4.40;4.10;;;;;;;;;;7330464;19;153629;-17
2022/01/01 13:55:56;;;;;;;4.28;3.97;;;;;;;;;;7331236;19;161954;-17
2022/01/01 13:58:28;;;;;;;4.60;4.30;;;;;;;;;;7331399;19;162433;-16
2022/01/01 14:01:02;;;;;;;4.38;4.07;;;;;;;;;;7332386;19;154019;-17
2022/01/01 14:03:34;;;;;;;4.30;4.00;;;;;;;;;;7332694;19;153601;-17
2022/01/01 14:06:06;;;;;;;4.75;4.45;;;;;;;;;;7331712;19;162013;-17
2022/01/01 14:08:38;;;;;;;4.47;4.13;;;;;;;;;;7332044;19;162354;-17
2022/01/01 14:11:32;;;;;;;4.78;4.38;;;;;;;;;;7332148;19;154231;-17
2022/01/01 14:14:12;;;;;;;4.70;4.40;;;;;;;;;;7333104;19;153490;-18
2022/01/01 14:16:52;;;;;;;4.30;3.90;;;;;;;;;;7331452;19;161735;-17
2022/01/01 14:19:25;;;;;;;4.18;3.88;;;;;;;;;;7331589;19;162433;-17
2022/01/01 14:21:57;;;;;;;4.17;3.97;;;;;;;;;;7328083;19;153920;-17
2022/01/01 14:24:28;;;;;;;4.20;4.00;;;;;;;;;;7332424;19;153595;-16
2022/01/01 14:27:08;;;;;;;4.50;4.20;;;;;;;;;;7332173;19;161961;-16
2022/01/01 14:29:39;;;;;;;4.50;4.20;;;;;;;;;;7332486;19;162311;-17
2022/01/01 14:32:17;;;;;;;4.07;3.78;;;;;;;;;;7332564;19;154187;-17
2022/01/01 14:34:48;;;;;;;4.05;3.85;;;;;;;;;;7329098;19;153539;-17
2022/01/01 14:37:24;;;;;;;4.20;3.92;;;;;;;;;;7325809;19;161850;-17
2022/01/01 14:39:56;;;;;;;3.78;3.55;;;;;;;;;;7325467;19;162342;-18
2022/01/01 14:42:28;;;;;;;4.07;3.77;;;;;;;;;;7325055;19;154180;-17
2022/01/01 14:44:59;;;;;;;4.22;3.92;;;;;;;;;;7331010;19;154625;-17
2022/01/01 14:47:43;;;;;;;3.95;3.65;;;;;;;;;;7331107;19;161860;-17
2022/01/01 14:50:16;;;;;;;3.70;3.50;;;;;;;;;;7330244;19;162741;-17
2022/01/01 14:52:56;;;;;;;3.75;3.50;;;;;;;;;;7327359;19;154542;-17
2022/01/01 14:55:39;;;;;;;4.00;3.80;;;;;;;;;;7326373;19;153557;-17
2022/01/01 14:58:16;;;;;;;3.88;3.67;;;;;;;;;;7330622;19;161818;-16
2022/01/01 15:00:51;;;;;;;3.83;3.63;;;;;;;;;;7335281;19;162303;-18
2022/01/01 15:03:25;;;;;;;3.90;3.70;;;;;;;;;;7335353;19;153967;-17
2022/01/01 15:05:56;;;;;;;3.95;3.75;;;;;;;;;;7336402;19;153556;-17
2022/01/01 15:08:33;;;;;;;3.60;3.40;;;;;;;;;;7329339;19;161928;-17
2022/01/01 15:11:06;;;;;;;3.50;3.30;;;;;;;;;;7337408;19;162434;-16
2022/01/01 15:13:37;;;;;;;;;;;;;;;;;;7332706;19;153967;-17
2022/01/01 15:16:09;;;;;;;3.70;3.50;;;;;;;;;;7337434;19;153979;-17
2022/01/01 15:18:44;;;;;;;3.50;3.30;;;;;;;;;;7338281;19;161956;-17
2022/01/01 15:21:22;;;;;;;3.42;3.22;;;;;;;;;;7337106;19;162423;-16
2022/01/01 15:23:59;;;;;;;3.80;3.50;;;;;;;;;;7332583;19;154351;-18
2022/01/01 15:26:32;;;;;;;4.05;3.63;;;;;;;;;;7334685;19;153608;-16
2022/01/01 15:29:11;;;;;;;3.80;3.60;;;;;;;;;;7331230;19;161948;-16
2022/01/01 15:34:53;;;;;;;3.80;3.60;;;;;;;;;;7335473;19;153956;-17
2022/01/01 15:37:27;;;;;;;3.78;3.47;;;;;;;;;;7337108;19;153514;-16
2022/01/01 15:40:03;;;;;;;2.95;2.85;;;;;;;;;;7335523;19;161823;-16
2022/01/01 15:42:35;;;;;;;3.40;3.20;;;;;;;;;;7334139;19;162362;-17
2022/01/01 15:45:07;;;;;;;3.38;3.17;;;;;;;;;;7335570;19;154050;-16
2022/01/01 15:47:38;;;;;;;3.58;3.28;;;;;;;;;;7334717;19;153612;-16
2022/01/01 15:50:14;;;;;;;3.78;3.47;;;;;;;;;;7335250;19;162019;-16
2022/01/01 15:52:45;;;;;;;3.58;3.38;;;;;;;;;;7332607;19;162457;-17
2022/01/01 15:55:19;;;;;;;3.60;3.40;;;;;;;;;;7332436;19;154383;-16
2022/01/01 15:57:54;;;;;;;3.03;2.85;;;;;;;;;;7330923;19;153660;-17
2022/01/01 16:00:27;;;;;;;3.53;3.33;;;;;;;;;;7335841;19;161752;-18
2022/01/01 16:03:03;;;;;;;;;;;;;;;;;;7335632;19;164302;-17
2022/01/01 16:05:46;;;;;;;2.90;2.80;;;;;;;;;;7335646;19;154122;-17
2022/01/01 16:08:21;;;;;;;3.30;3.10;;;;;;;;;;7335837;19;153742;-17
2022/01/01 16:10:55;;;;;;;3.13;2.92;;;;;;;;;;7336830;19;162132;-17
2022/01/01 16:13:30;;;;;;;3.17;2.97;;;;;;;;;;7335502;19;162330;-16
2022/01/01 16:16:06;;;;;;;2.90;2.80;;;;;;;;;;7333269;19;154195;-18
2022/01/01 16:18:40;;;;;;;2.83;2.72;;;;;;;;;;7337319;19;153634;-18
2022/01/01 16:21:16;;;;;;;3.35;3.13;;;;;;;;;;7335476;19;162100;-18
2022/01/01 16:23:48;;;;;;;3.13;2.92;;;;;;;;;;7335524;19;162389;-17
2022/01/01 16:26:25;;;;;;;3.17;3.05;;;;;;;;;;7335773;19;153950;-18
2022/01/01 16:28:56;;;;;;;2.72;2.53;;;;;;;;;;7336065;19;153704;-18
2022/01/01 16:31:28;;;;;;;2.75;2.65;;;;;;;;;;7333919;19;161965;-18
2022/01/01 16:34:00;;;;;;;2.65;2.55;;;;;;;;;;7331799;19;162356;-17
2022/01/01 16:36:34;;;;;;;;;;;;;;;;;;7331216;19;153970;-18
2022/01/01 16:39:05;;;;;;;2.67;2.50;;;;;;;;;;7332908;19;153264;-18
2022/01/01 16:41:54;;;;;;;3.00;2.90;;;;;;;;;;7332315;19;161892;-18
2022/01/01 16:44:32;;;;;;;2.88;2.72;;;;;;;;;;7332277;19;162404;-19
2022/01/01 16:47:11;;;;;;;2.92;2.83;;;;;;;;;;7334263;19;154110;-19
2022/01/01 16:50:09;;;;;;;2.97;2.80;;;;;;;;;;7334527;19;153491;-19
2022/01/01 16:52:48;;;;;;;2.63;2.53;;;;;;;;;;7336227;19;161795;-19
2022/01/01 16:55:26;;;;;;;2.55;2.42;;;;;;;;;;7330732;19;162542;-18
2022/01/01 16:58:05;;;;;;;2.75;2.65;;;;;;;;;;7332145;19;154102;-18
2022/01/01 17:00:38;;;;;;;2.70;2.50;;;;;;;;;;7332111;19;153685;-18
2022/01/01 17:03:10;;;;;;;2.80;2.70;;;;;;;;;;7331689;19;161872;-17
2022/01/01 17:05:44;;;;;;;2.50;2.40;;;;;;;;;;7331593;19;162468;-18
2022/01/01 17:08:18;;;;;;;2.70;2.60;;;;;;;;;;7332038;19;154276;-18
2022/01/01 17:10:51;;;;;;;2.80;2.65;;;;;;;;;;7331846;19;153490;-18
2022/01/01 17:13:22;;;;;;;2.75;2.55;;;;;;;;;;7331460;19;161990;-18
2022/01/01 17:16:05;;;;;;;2.50;2.40;;;;;;;;;;7330021;19;162480;-18
2022/01/01 17:18:45;;;;;;;3.53;3.20;;;;;;;;;;7331605;19;154064;-18
2022/01/01 17:21:19;;;;;;;2.50;2.40;;;;;;;;;;7328880;19;153703;-17
2022/01/01 17:24:00;;;;;;;2.08;1.98;;;;;;;;;;7332348;19;161883;-18
2022/01/01 17:26:35;;;;;;;2.10;2.00;;;;;;;;;;7334369;19;162414;-17
2022/01/01 17:29:08;;;;;;;2.40;2.30;;;;;;;;;;7332704;19;153996;-18
2022/01/01 17:31:40;;;;;;;2.58;2.47;;;;;;;;;;7331298;19;153637;-19
2022/01/01 17:34:44;;;;;;;2.58;2.38;;;;;;;;;;7330774;19;161975;-18
2022/01/01 17:37:17;;;;;;;2.25;2.15;;;;;;;;;;7331300;19;162444;-18
2022/01/01 17:39:56;;;;;;;2.53;2.35;;;;;;;;;;7331350;19;153960;-18
2022/01/01 17:42:33;;;;;;;2.35;2.25;;;;;;;;;;7331041;19;153530;-18
2022/01/01 17:45:05;;;;;;;2.33;2.22;;;;;;;;;;7330423;19;161998;-17
2022/01/01 17:47:39;;;;;;;2.50;2.40;;;;;;;;;;7334176;19;162372;-18
2022/01/01 17:50:14;;;;;;;2.30;2.20;;;;;;;;;;7330859;19;154051;-18
2022/01/01 17:52:45;;;;;;;2.45;2.30;;;;;;;;;;7329319;19;153649;-19
2022/01/01 17:55:35;;;;;;;2.20;2.10;;;;;;;;;;7329742;19;162030;-17
2022/01/01 17:58:07;;;;;;;2.63;2.53;;;;;;;;;;7330247;19;162327;-17
2022/01/01 18:00:39;;;;;;;2.28;2.17;;;;;;;;;;7329488;19;154692;-17
2022/01/01 18:03:11;;;;;;;2.33;2.23;;;;;;;;;;7330333;19;153779;-17
2022/01/01 18:05:44;;;;;;;1.98;1.88;;;;;;;;;;7330051;19;161953;-17
2022/01/01 18:08:21;;;;;;;2.70;2.60;;;;;;;;;;7331066;19;162151;-18
2022/01/01 18:11:01;;;;;;;2.45;2.35;;;;;;;;;;7330993;19;154326;-16
2022/01/01 18:13:40;;;;;;;2.30;2.20;;;;;;;;;;7330321;19;153490;-17
2022/01/01 18:16:12;;;;;;;2.35;2.25;;;;;;;;;;7332566;19;161827;-16
2022/01/01 18:18:51;;;;;;;2.20;2.10;;;;;;;;;;7331589;19;162564;-16
2022/01/01 18:21:23;;;;;;;2.67;2.20;;;;;;;;;;7332588;19;153905;-17
2022/01/01 18:23:58;;;;;;;;;;;;;;;;;;7331876;19;153525;-17
2022/01/01 18:26:40;;;;;;;2.33;2.20;;;;;;;;;;7332846;19;161920;-17
2022/01/01 18:29:13;;;;;;;2.45;2.25;;;;;;;;;;7332079;19;162611;-16
2022/01/01 18:31:46;;;;;;;;;;;;;;;;;;7333519;19;154266;-17
2022/01/01 18:34:23;;;;;;;2.63;2.38;;;;;;;;;;7339981;19;153308;-17
2022/01/01 18:36:54;;;;;;;2.60;2.40;;;;;;;;;;7338316;19;161840;-22
2022/01/01 18:39:30;;;;;;;1.98;1.88;;;;;;;;;;7338754;19;162370;-18
2022/01/01 18:42:04;;;;;;;2.50;2.30;;;;;;;;;;7339522;19;154031;-17
2022/01/01 18:44:38;;;;;;;2.50;2.17;;;;;;;;;;7339443;19;153586;-17
2022/01/01 18:47:11;;;;;;;1.95;1.85;;;;;;;;;;7336375;19;161861;-16
2022/01/01 18:49:45;;;;;;;2.08;1.98;;;;;;;;;;7339042;19;162349;-17
2022/01/01 18:52:19;;;;;;;2.40;1.90;;;;;;;;;;7339388;19;153946;-17
2022/01/01 18:55:01;;;;;;;2.53;2.20;;;;;;;;;;7339196;19;153540;-19
2022/01/01 18:57:45;;;;;;;3.17;2.22;;;;;;;;;;7335303;19;161975;-17
2022/01/01 19:00:19;;;;;;;2.97;2.50;;;;;;;;;;7335805;19;162580;-17
2022/01/01 19:02:51;;;;;;;4.30;2.60;;;;;;;;;;7338015;19;153963;-24
2022/01/01 19:05:25;;;;;;;3.47;3.17;;;;;;;;;;7335547;19;153583;-17
2022/01/01 19:07:59;;;;;;;6.32;5.72;;;;;;;;;;7337831;19;162134;-17
2022/01/01 19:10:43;;;;;;;15.85;13.20;;;;;;;;;;7336305;19;162523;-17
2022/01/01 19:13:21;;;;;;;;;;;;;;;;;;7337341;19;154095;-18
2022/01/01 19:15:58;;;;;;;43.05;35.03;;;;;;;;;;7338398;19;153456;-17
2022/01/01 19:18:34;;;;;;;38.90;33.83;;;;;;;;;;7333540;19;161546;-18
2022/01/01 19:21:07;;;;;;;28.73;24.15;;;;;;;;;;7336803;19;162380;-17
2022/01/01 19:23:38;;;;;;;;;;;;;;;;;;7339396;19;154060;-19
2022/01/01 19:26:09;;;;;;;18.98;16.33;;;;;;;;;;7338833;19;153335;-18
2022/01/01 19:28:45;;;;;;;19.10;17.00;;;;;;;;;;7337480;19;161963;-17
2022/01/01 19:31:17;;;;;;;18.42;16.23;;;;;;;;;;7335710;19;162352;-18
2022/01/01 19:33:50;;;;;;;18.25;16.35;;;;;;;;;;7337208;19;154021;-18
2022/01/01 19:36:21;;;;;;;19.25;17.15;;;;;;;;;;7336918;19;153603;-19
2022/01/01 19:38:52;;;;;;;18.52;16.42;;;;;;;;;;7334571;19;161808;-17
2022/01/01 19:41:30;;;;;;;17.63;15.77;;;;;;;;;;7337711;19;162638;-19
2022/01/01 19:44:10;;;;;;;20.40;18.13;;;;;;;;;;7335747;19;153868;-18
2022/01/01 19:46:51;;;;;;;17.63;15.82;;;;;;;;;;7337247;19;153757;-19
2022/01/01 19:49:26;;;;;;;17.67;15.88;;;;;;;;;;7337674;19;161831;-17
2022/01/01 19:51:57;;;;;;;17.25;15.52;;;;;;;;;;7333303;19;162448;-17
2022/01/01 19:54:28;;;;;;;16.73;14.98;;;;;;;;;;7337807;19;154112;-19
2022/01/01 19:57:00;;;;;;;16.88;14.77;;;;;;;;;;7336936;19;153341;-18
2022/01/01 19:59:34;;;;;;;16.88;15.10;;;;;;;;;;7337173;19;161810;-18
2022/01/01 20:02:07;;;;;;;17.80;16.00;;;;;;;;;;7336998;19;162326;-19
2022/01/01 20:04:45;;;;;;;17.52;15.73;;;;;;;;;;7335913;19;154097;-18
2022/01/01 20:07:18;;;;;;;16.60;14.90;;;;;;;;;;7337079;19;153589;-17
2022/01/01 20:09:49;;;;;;;;;;;;;;;;;;7337674;19;161880;-17
2022/01/01 20:12:20;;;;;;;26.45;23.55;;;;;;;;;;7334222;19;162698;-17
2022/01/01 20:14:54;;;;;;;22.85;20.52;;;;;;;;;;7335493;19;154041;-17
2022/01/01 20:17:26;;;;;;;25.00;22.30;;;;;;;;;;7334499;19;153729;-19
2022/01/01 20:19:57;;;;;;;28.30;21.95;;;;;;;;;;7332063;19;162104;-19
2022/01/01 20:22:29;;;;;;;26.20;23.50;;;;;;;;;;7330028;19;162565;-18
2022/01/01 20:25:02;;;;;;;24.30;20.95;;;;;;;;;;7334955;19;153909;-18
2022/01/01 20:27:40;;;;;;;23.30;20.95;;;;;;;;;;7336145;19;153528;-17
2022/01/01 20:30:15;;;;;;;25.30;22.70;;;;;;;;;;7336697;19;161983;-17
2022/01/01 20:32:47;;;;;;;23.33;20.92;;;;;;;;;;7332038;19;162199;-17
2022/01/01 20:35:23;;;;;;;21.23;18.95;;;;;;;;;;7337051;19;154490;-17
2022/01/01 20:38:01;;;;;;;23.02;20.73;;;;;;;;;;7332008;19;153645;-17
2022/01/01 20:40:36;;;;;;;21.60;19.33;;;;;;;;;;7331427;19;161828;-17
2022/01/01 20:43:09;;;;;;;21.20;18.90;;;;;;;;;;7332540;19;162525;-18
2022/01/01 20:45:43;;;;;;;21.33;19.10;;;;;;;;;;7331767;19;153980;-19
2022/01/01 20:48:14;;;;;;;20.48;18.38;;;;;;;;;;7331395;19;153675;-18
2022/01/01 20:50:48;;;;;;;21.60;19.33;;;;;;;;;;7331078;19;162116;-17
2022/01/01 20:53:19;;;;;;;21.55;19.35;;;;;;;;;;7332852;19;162368;-18
2022/01/01 20:55:51;;;;;;;20.45;18.13;;;;;;;;;;7331026;19;154027;-18
2022/01/01 20:58:22;;;;;;;20.35;18.13;;;;;;;;;;7335493;19;153639;-16
2022/01/01 21:00:56;;;;;;;19.95;18.05;;;;;;;;;;7335263;19;161815;-16
2022/01/01 21:03:33;;;;;;;20.65;18.48;;;;;;;;;;7331162;19;162390;-19
2022/01/01 21:06:10;;;;;;;19.00;17.10;;;;;;;;;;7330264;19;154186;-17
2022/01/01 21:08:42;;;;;;;18.65;16.80;;;;;;;;;;7332943;19;154209;-17
2022/01/01 21:11:15;;;;;;;18.92;17.13;;;;;;;;;;7331437;19;161800;-17
2022/01/01 21:13:46;;;;;;;;;;;;;;;;;;7330360;19;162209;-17
2022/01/01 21:16:20;;;;;;;18.90;16.85;;;;;;;;;;7335483;19;154200;-17
2022/01/01 21:18:52;;;;;;;17.98;15.82;;;;;;;;;;7332617;19;153633;-17
2022/01/01 21:21:25;;;;;;;19.45;17.50;;;;;;;;;;7326908;19;162306;-17
2022/01/01 21:24:00;;;;;;;19.23;17.30;;;;;;;;;;7330420;19;162390;-17
2022/01/01 21:26:33;;;;;;;17.88;16.17;;;;;;;;;;7331127;19;153849;-16
2022/01/01 21:29:07;;;;;;;;;;;;;;;;;;7330478;19;153760;-18
2022/01/01 21:32:06;;;;;;;17.98;16.25;;;;;;;;;;7331210;19;162336;-18
2022/01/01 21:34:59;;;;;;;17.55;15.85;;;;;;;;;;7330960;19;163126;-18
2022/01/01 21:37:49;;;;;;;18.00;16.13;;;;;;;;;;7330481;19;154180;-18
2022/01/01 21:40:39;;;;;;;17.83;16.13;;;;;;;;;;7331100;19;153732;-18
2022/01/01 21:43:29;;;;;;;19.02;15.07;;;;;;;;;;7330504;19;161794;-17
2022/01/01 21:46:19;;;;;;;17.60;15.77;;;;;;;;;;7330234;19;162579;-17
2022/01/01 21:49:22;;;;;;;17.17;15.40;;;;;;;;;;7330889;19;153955;-17
2022/01/01 21:52:14;;;;;;;16.95;15.15;;;;;;;;;;7331533;19;153539;-17
2022/01/01 21:55:04;;;;;;;16.75;15.05;;;;;;;;;;7333097;19;161733;-17
2022/01/01 21:57:54;;;;;;;17.55;15.85;;;;;;;;;;7329741;19;162409;-17
2022/01/01 22:00:44;;;;;;;17.20;15.45;;;;;;;;;;7330108;19;153883;-17
2022/01/01 22:03:35;;;;;;;16.88;15.23;;;;;;;;;;7330293;19;153471;-18
2022/01/01 22:06:27;;;;;;;16.00;14.50;;;;;;;;;;7328910;19;161744;-18
2022/01/01 22:09:18;;;;;;;15.52;14.02;;;;;;;;;;7329987;19;162338;-18
2022/01/01 22:12:09;;;;;;;16.70;15.00;;;;;;;;;;7330326;19;154234;-18
2022/01/01 22:14:59;;;;;;;16.08;14.48;;;;;;;;;;7330052;19;153622;-19
2022/01/01 22:17:50;;;;;;;15.32;13.88;;;;;;;;;;7328354;19;161889;-18
2022/01/01 22:20:40;;;;;;;15.73;14.32;;;;;;;;;;7326679;19;162620;-18
2022/01/01 22:23:33;;;;;;;15.32;13.93;;;;;;;;;;7329824;19;154263;-18
2022/01/01 22:26:23;;;;;;;15.00;13.60;;;;;;;;;;7329768;19;153704;-18
2022/01/01 22:29:12;;;;;;;15.45;13.95;;;;;;;;;;7328958;19;161538;-18
2022/01/01 22:32:09;;;;;;;15.38;13.95;;;;;;;;;;7329242;19;162632;-19
2022/01/01 22:35:00;;;;;;;14.80;13.30;;;;;;;;;;7329153;19;154235;-19
2022/01/01 22:37:50;;;;;;;15.18;13.77;;;;;;;;;;7329164;19;153551;-19
2022/01/01 22:40:43;;;;;;;14.98;13.48;;;;;;;;;;7326623;19;161909;-18
2022/01/01 22:43:37;;;;;;;14.95;13.55;;;;;;;;;;7328501;19;162647;-19
2022/01/01 22:46:30;;;;;;;13.88;12.57;;;;;;;;;;7328724;19;154100;-19
2022/01/01 22:49:23;;;;;;;14.63;13.13;;;;;;;;;;7328699;19;153552;-18
2022/01/01 22:52:13;;;;;;;15.55;14.07;;;;;;;;;;7327708;19;161840;-18
2022/01/01 22:55:04;;;;;;;15.68;14.23;;;;;;;;;;7328398;19;162379;-18
2022/01/01 22:57:56;;;;;;;14.98;13.48;;;;;;;;;;7328857;19;153793;-17
2022/01/01 23:01:09;;;;;;;14.65;13.20;;;;;;;;;;7326913;19;153533;-17
2022/01/01 23:04:01;;;;;;;14.20;12.73;;;;;;;;;;7328262;19;162105;-18
2022/01/01 23:06:52;;;;;;;14.43;13.02;;;;;;;;;;7328414;19;162578;-19
2022/01/01 23:09:42;;;;;;;14.07;12.88;;;;;;;;;;7328839;19;154003;-19
2022/01/01 23:12:32;;;;;;;12.70;11.50;;;;;;;;;;7327471;19;153679;-19
2022/01/01 23:15:26;;;;;;;13.77;12.48;;;;;;;;;;7327608;19;162131;-19
2022/01/01 23:21:22;;;;;;;12.52;11.32;;;;;;;;;;7332520;19;154245;-17
2022/01/01 23:24:16;;;;;;;13.15;11.93;;;;;;;;;;7335089;19;153468;-16
2022/01/01 23:27:10;;;;;;;14.23;12.93;;;;;;;;;;7334296;19;161800;-17
2022/01/01 23:30:00;;;;;;;;;;;;;;;;;;7334608;19;162440;-17
2022/01/01 23:32:57;;;;;;;12.25;11.05;;;;;;;;;;7335055;19;154477;-17
2022/01/01 23:35:50;;;;;;;13.40;12.10;;;;;;;;;;7335021;19;153739;-17
2022/01/01 23:38:45;;;;;;;13.18;11.98;;;;;;;;;;7334342;19;161813;-17
2022/01/01 23:41:36;;;;;;;12.48;11.38;;;;;;;;;;7331916;19;162690;-17
2022/01/01 23:44:28;;;;;;;12.18;11.07;;;;;;;;;;7333579;19;154205;-17
2022/01/01 23:47:18;;;;;;;13.27;11.98;;;;;;;;;;7334831;19;153532;-18
2022/01/01 23:50:11;;;;;;;13.27;12.07;;;;;;;;;;7334339;19;161821;-18
2022/01/01 23:53:04;;;;;;;12.43;11.37;;;;;;;;;;7334395;19;162434;-19
2022/01/01 23:56:00;;;;;;;12.60;11.50;;;;;;;;;;7334406;19;153892;-18
2022/01/01 23:59:02;;;;;;;12.77;11.57;;;;;;;;;;7333572;19;153662;-18
